createdAt,value
2023-05-14T00:00:24.471Z,20.01
2023-05-14T00:02:55.364Z,20.02
2023-05-14T00:05:26.097Z,20.04
2023-05-14T00:07:56.798Z,20.06
2023-05-14T00:10:28.170Z,20.08
2023-05-14T00:12:58.794Z,20.07
2023-05-14T00:15:30.296Z,20.08
2023-05-14T00:18:01.824Z,20.09
2023-05-14T00:20:33.478Z,20.10
2023-05-14T00:23:04.102Z,20.10
2023-05-14T00:25:34.555Z,20.10
2023-05-14T00:28:05.695Z,20.11
2023-05-14T00:30:36.483Z,20.10
2023-05-14T00:33:07.087Z,20.10
2023-05-14T00:35:37.570Z,20.12
2023-05-14T00:38:09.193Z,20.12
2023-05-14T00:40:39.759Z,26.97
2023-05-14T00:43:10.181Z,32.08
2023-05-14T00:45:41.527Z,32.80
2023-05-14T00:48:12.043Z,32.99
2023-05-14T00:50:43.509Z,33.00
2023-05-14T00:55:58.583Z,31.85
2023-05-14T00:58:32.618Z,33.01
2023-05-14T01:03:50.627Z,32.69
2023-05-14T01:06:54.463Z,33.34
2023-05-14T01:09:47.935Z,33.29
2023-05-14T01:12:36.278Z,33.06
2023-05-14T01:15:16.855Z,33.62
2023-05-14T01:17:58.642Z,34.34
2023-05-14T01:20:32.324Z,34.20
2023-05-14T01:23:02.871Z,33.05
2023-05-14T01:25:33.977Z,34.53
2023-05-14T01:28:13.730Z,35.03
2023-05-14T01:31:03.612Z,34.59
2023-05-14T01:33:37.625Z,36.12
2023-05-14T01:36:08.863Z,35.44
2023-05-14T01:38:41.996Z,35.76
2023-05-14T01:41:12.707Z,32.84
2023-05-14T01:43:44.757Z,32.07
2023-05-14T01:48:58.417Z,33.87
2023-05-14T01:51:29.486Z,35.51
2023-05-14T01:54:00.219Z,35.07
2023-05-14T01:56:30.813Z,36.27
2023-05-14T01:59:08.855Z,36.06
2023-05-14T02:01:39.494Z,34.55
2023-05-14T02:06:53.519Z,36.23
2023-05-14T02:09:30.693Z,35.89
2023-05-14T02:12:01.259Z,36.52
2023-05-14T02:14:50.425Z,36.53
2023-05-14T02:17:20.951Z,37.24
2023-05-14T02:30:43.866Z,37.11
2023-05-14T02:33:17.792Z,35.91
2023-05-14T02:35:48.498Z,36.52
2023-05-14T02:41:05.616Z,36.63
2023-05-14T02:46:19.192Z,36.29
2023-05-14T02:54:18.618Z,36.64
2023-05-14T02:56:50.802Z,37.32
2023-05-14T02:59:24.689Z,36.48
2023-05-14T03:01:55.927Z,37.35
2023-05-14T03:04:33.823Z,36.62
2023-05-14T03:07:08.146Z,37.08
2023-05-14T03:09:38.618Z,36.69
2023-05-14T03:17:36.462Z,35.94
2023-05-14T03:20:08.492Z,36.55
2023-05-14T03:25:22.071Z,36.20
2023-05-14T03:27:52.559Z,37.21
2023-05-14T13:48:51.389Z,35.86
2023-05-14T15:02:12.965Z,36.15
2023-05-14T16:12:26.485Z,36.52
2023-05-14T16:33:56.787Z,35.68
2023-05-14T18:14:45.741Z,35.40
2023-05-14T18:43:05.221Z,35.71
2023-05-14T19:46:01.611Z,35.43
2023-05-14T20:08:09.784Z,35.17
2023-05-14T20:37:05.714Z,35.68
2023-05-14T22:14:17.197Z,35.01
2023-05-14T23:04:52.004Z,35.69
